Time;durP1;ratioP1;P1;durP2;ratioP2;P2;SDS_P1;SDS_P2;PMS_P1;PMS_P2;Temp;Humidity;BMP_temperature;BMP_pressure;BME280_temperature;BME280_humidity;BME280_pressure;Samples;Min_cycle;Max_cycle;Signal;HPM_P1;HPM_P2
2021/06/03 00:00:26;;;;;;;12.23;9.17;;;18.40;99.90;;;;;;5054731;28;20230;-77
2021/06/03 00:02:54;;;;;;;9.87;8.10;;;18.50;99.90;;;;;;5054526;28;20188;-78
2021/06/03 00:05:22;;;;;;;14.60;9.17;;;18.40;99.90;;;;;;5054549;28;20291;-78
2021/06/03 00:07:50;;;;;;;9.07;8.17;;;18.30;99.90;;;;;;5054493;28;20283;-81
2021/06/03 00:10:17;;;;;;;10.10;8.30;;;18.20;99.90;;;;;;5054505;28;20220;-78
2021/06/03 00:12:44;;;;;;;11.07;7.50;;;18.20;99.90;;;;;;5054195;28;20635;-82
2021/06/03 00:15:13;;;;;;;8.07;6.83;;;18.10;99.90;;;;;;5054308;28;20657;-82
2021/06/03 00:17:40;;;;;;;9.53;6.60;;;18.00;99.90;;;;;;5054562;28;20337;-80
2021/06/03 00:20:08;;;;;;;7.33;6.20;;;17.90;99.90;;;;;;5053883;28;20232;-78
2021/06/03 00:22:35;;;;;;;9.03;6.40;;;17.90;99.90;;;;;;5053846;28;20295;-80
2021/06/03 00:25:05;;;;;;;8.90;5.90;;;17.90;99.90;;;;;;5053410;28;20223;-78
2021/06/03 00:27:31;;;;;;;7.10;5.83;;;17.90;99.90;;;;;;5054532;28;20227;-79
2021/06/03 00:29:58;;;;;;;10.37;6.00;;;17.90;99.90;;;;;;5054218;28;20291;-78
2021/06/03 00:32:24;;;;;;;9.13;5.97;;;17.80;99.90;;;;;;5054044;28;20204;-78
2021/06/03 00:34:50;;;;;;;6.10;5.50;;;17.70;99.90;;;;;;5053961;28;20200;-78
2021/06/03 00:37:17;;;;;;;8.73;6.07;;;17.60;99.90;;;;;;5053642;28;20658;-79
2021/06/03 00:39:43;;;;;;;7.73;5.70;;;17.60;99.90;;;;;;5053893;28;20246;-78
2021/06/03 00:42:11;;;;;;;7.10;5.90;;;17.60;99.90;;;;;;5053540;28;20277;-77
2021/06/03 00:44:37;;;;;;;6.30;5.70;;;17.70;99.90;;;;;;5053681;28;20660;-78
2021/06/03 00:47:04;;;;;;;8.33;6.33;;;17.70;99.90;;;;;;5053513;28;20291;-82
2021/06/03 00:49:31;;;;;;;10.27;5.57;;;17.70;99.90;;;;;;5053672;28;20204;-77
2021/06/03 00:51:57;;;;;;;7.93;5.13;;;17.70;99.90;;;;;;5053705;28;20226;-78
2021/06/03 00:54:24;;;;;;;6.33;5.37;;;17.60;99.90;;;;;;5052950;28;20701;-78
2021/06/03 00:56:50;;;;;;;5.63;4.97;;;17.60;99.90;;;;;;5053377;28;20224;-77
2021/06/03 00:59:18;;;;;;;6.60;5.03;;;17.60;99.90;;;;;;5053312;28;20208;-78
2021/06/03 01:01:44;;;;;;;6.80;5.50;;;17.60;99.90;;;;;;5053406;28;20287;-78
2021/06/03 01:04:13;;;;;;;6.17;5.47;;;17.60;99.90;;;;;;5053492;28;20210;-78
2021/06/03 01:06:39;;;;;;;6.73;5.33;;;17.60;99.90;;;;;;5053598;28;20199;-78
2021/06/03 01:09:09;;;;;;;8.33;5.67;;;17.70;99.90;;;;;;5052360;28;20204;-78
2021/06/03 01:11:43;;;;;;;10.17;5.83;;;17.60;99.90;;;;;;5053300;28;20277;-78
2021/06/03 01:14:15;;;;;;;8.30;6.23;;;17.60;99.90;;;;;;5053369;28;20218;-80
2021/06/03 01:16:43;;;;;;;9.07;6.00;;;17.60;99.90;;;;;;5052936;28;20237;-79
2021/06/03 01:19:13;;;;;;;6.37;5.33;;;17.60;99.90;;;;;;5053342;28;20322;-81
2021/06/03 01:21:47;;;;;;;6.97;5.33;;;17.50;99.90;;;;;;5053385;28;20705;-78
2021/06/03 01:24:26;;;;;;;8.03;6.00;;;17.60;99.90;;;;;;5053129;28;20275;-81
2021/06/03 01:26:55;;;;;;;13.90;5.30;;;17.60;99.90;;;;;;5053129;28;20211;-78
2021/06/03 01:29:23;;;;;;;7.10;5.93;;;17.50;99.90;;;;;;5053256;28;20291;-78
2021/06/03 01:31:52;;;;;;;7.23;5.60;;;17.50;99.90;;;;;;5052716;28;20284;-78
2021/06/03 01:34:19;;;;;;;5.80;4.93;;;17.50;99.90;;;;;;5052742;28;20227;-80
2021/06/03 01:36:45;;;;;;;7.93;5.60;;;17.50;99.90;;;;;;5051790;28;20669;-78
2021/06/03 01:39:12;;;;;;;7.73;5.77;;;17.50;99.90;;;;;;5052728;28;20306;-79
2021/06/03 01:41:41;;;;;;;7.23;5.93;;;17.50;99.90;;;;;;5052688;28;20378;-80
2021/06/03 01:44:08;;;;;;;7.27;5.87;;;17.50;99.90;;;;;;5052318;28;20717;-78
2021/06/03 01:46:35;;;;;;;7.83;5.30;;;17.50;99.90;;;;;;5052591;28;20238;-81
2021/06/03 01:49:02;;;;;;;9.17;5.13;;;17.50;99.90;;;;;;5050554;28;20614;-78
2021/06/03 01:51:29;;;;;;;8.93;5.77;;;17.50;99.90;;;;;;5045723;28;20223;-79
2021/06/03 01:53:57;;;;;;;10.13;5.73;;;17.50;99.90;;;;;;5052162;28;20227;-78
2021/06/03 01:56:24;;;;;;;6.00;5.40;;;17.40;99.90;;;;;;5052050;28;20228;-78
2021/06/03 01:58:51;;;;;;;7.00;5.30;;;17.40;99.90;;;;;;5052517;28;20212;-79
2021/06/03 02:01:19;;;;;;;6.90;5.67;;;17.40;99.90;;;;;;5052379;28;20204;-79
2021/06/03 02:03:46;;;;;;;6.13;5.00;;;17.40;99.90;;;;;;5052452;28;20196;-78
2021/06/03 02:06:13;;;;;;;7.30;5.73;;;17.50;99.90;;;;;;5052391;28;20270;-78
2021/06/03 02:08:40;;;;;;;10.87;5.90;;;17.50;99.90;;;;;;5052328;28;20192;-78
2021/06/03 02:11:07;;;;;;;8.30;5.20;;;17.50;99.90;;;;;;5052173;28;20261;-81
2021/06/03 02:13:37;;;;;;;9.70;5.53;;;17.50;99.90;;;;;;5052285;28;20299;-78
2021/06/03 02:16:12;;;;;;;8.70;5.50;;;17.50;99.90;;;;;;5052614;28;20207;-80
2021/06/03 02:18:42;;;;;;;15.23;5.73;;;17.50;99.90;;;;;;5052445;28;20222;-78
2021/06/03 02:21:09;;;;;;;10.23;5.93;;;17.50;99.90;;;;;;5052136;28;20689;-78
2021/06/03 02:23:37;;;;;;;11.83;6.30;;;17.60;99.90;;;;;;5052099;28;20584;-79
2021/06/03 02:26:04;;;;;;;8.37;6.20;;;17.50;99.90;;;;;;5052437;28;20315;-78
2021/06/03 02:28:32;;;;;;;9.33;6.10;;;17.60;99.90;;;;;;5052725;28;20287;-82
2021/06/03 02:31:00;;;;;;;8.00;6.07;;;17.60;99.90;;;;;;5052126;28;20221;-78
2021/06/03 02:33:29;;;;;;;6.63;6.03;;;17.60;99.90;;;;;;5052056;28;20241;-78
2021/06/03 02:35:56;;;;;;;8.50;6.30;;;17.60;99.90;;;;;;5051925;28;20200;-82
2021/06/03 02:38:23;;;;;;;7.30;5.97;;;17.70;99.90;;;;;;5052417;28;20227;-78
2021/06/03 02:40:51;;;;;;;7.80;5.67;;;17.70;99.90;;;;;;5051953;28;20755;-80
2021/06/03 02:43:18;;;;;;;9.07;6.57;;;17.90;99.90;;;;;;5052274;28;20242;-78
2021/06/03 02:45:44;;;;;;;12.43;6.10;;;17.90;99.90;;;;;;5052007;28;20283;-78
2021/06/03 02:48:11;;;;;;;10.43;6.17;;;17.90;99.90;;;;;;5054048;28;20617;-78
2021/06/03 02:50:39;;;;;;;8.77;6.23;;;17.90;99.90;;;;;;5055894;28;20282;-81
2021/06/03 02:53:06;;;;;;;8.93;6.00;;;17.90;99.90;;;;;;5055762;28;20196;-78
2021/06/03 02:55:32;;;;;;;9.07;6.03;;;17.90;99.90;;;;;;5056150;28;20283;-79
2021/06/03 02:57:59;;;;;;;9.70;6.47;;;17.90;99.90;;;;;;5055617;28;20283;-78
2021/06/03 03:00:27;;;;;;;9.27;6.73;;;17.90;99.90;;;;;;5055618;28;20302;-78
2021/06/03 03:02:53;;;;;;;9.40;6.87;;;17.90;99.90;;;;;;5055377;28;20265;-77
2021/06/03 03:05:20;;;;;;;8.67;6.67;;;17.90;99.90;;;;;;5055549;28;20220;-78
2021/06/03 03:07:48;;;;;;;11.47;6.53;;;17.90;99.90;;;;;;5055589;28;20672;-80
2021/06/03 03:10:23;;;;;;;11.40;7.30;;;18.00;99.90;;;;;;5055336;28;20203;-82
2021/06/03 03:12:50;;;;;;;10.33;7.43;;;18.00;99.90;;;;;;5055923;28;20278;-78
2021/06/03 03:15:18;;;;;;;9.43;7.43;;;18.00;99.90;;;;;;5055761;28;20718;-79
2021/06/03 03:17:45;;;;;;;13.47;7.17;;;18.00;99.90;;;;;;5055665;28;20196;-78
2021/06/03 03:20:13;;;;;;;9.60;7.30;;;18.00;99.90;;;;;;5055645;28;20220;-78
2021/06/03 03:22:40;;;;;;;9.80;7.53;;;18.00;99.90;;;;;;5056060;28;20291;-78
2021/06/03 03:25:11;;;;;;;7.63;6.83;;;18.10;99.90;;;;;;5055457;28;20223;-78
2021/06/03 03:27:38;;;;;;;10.47;7.50;;;18.10;99.90;;;;;;5055549;28;20325;-79
2021/06/03 03:30:06;;;;;;;12.60;7.57;;;18.10;99.90;;;;;;5055685;28;20295;-78
2021/06/03 03:32:33;;;;;;;13.57;7.97;;;18.00;99.90;;;;;;5055580;28;20257;-78
2021/06/03 03:35:00;;;;;;;9.73;8.47;;;18.10;99.90;;;;;;5055382;28;20729;-78
2021/06/03 03:37:28;;;;;;;13.27;8.23;;;18.10;99.90;;;;;;5055561;28;20211;-78
2021/06/03 03:39:55;;;;;;;18.67;9.03;;;18.10;99.90;;;;;;5055306;28;20310;-77
2021/06/03 03:42:23;;;;;;;12.90;8.67;;;18.10;99.90;;;;;;5055056;28;20279;-78
2021/06/03 03:44:49;;;;;;;11.70;8.50;;;18.10;99.90;;;;;;5055082;28;20204;-77
2021/06/03 03:47:16;;;;;;;13.63;9.37;;;18.20;99.90;;;;;;5055127;28;20231;-78
2021/06/03 03:49:42;;;;;;;14.50;9.17;;;18.20;99.90;;;;;;5055256;28;20212;-81
2021/06/03 03:52:09;;;;;;;15.57;9.13;;;18.30;99.90;;;;;;5055210;28;20607;-78
2021/06/03 03:54:36;;;;;;;14.47;8.80;;;18.40;99.90;;;;;;5050007;28;20239;-78
2021/06/03 03:57:03;;;;;;;12.63;9.43;;;18.50;99.90;;;;;;5055309;28;20294;-78
2021/06/03 03:59:31;;;;;;;12.40;9.10;;;18.70;99.90;;;;;;5053731;28;20310;-83
2021/06/03 04:01:57;;;;;;;12.93;9.33;;;18.90;99.90;;;;;;5055233;28;20283;-80
2021/06/03 04:04:24;;;;;;;13.53;9.07;;;19.10;99.90;;;;;;5055104;28;20246;-78
2021/06/03 04:06:51;;;;;;;13.30;8.67;;;19.20;99.90;;;;;;5055250;28;20241;-77
2021/06/03 04:09:18;;;;;;;11.90;8.30;;;19.30;99.90;;;;;;5055112;28;20223;-79
2021/06/03 04:11:44;;;;;;;13.50;8.57;;;19.50;99.90;;;;;;5054682;28;20736;-78
2021/06/03 04:14:12;;;;;;;12.80;8.47;;;19.50;99.90;;;;;;5054670;28;20192;-77
2021/06/03 04:16:39;;;;;;;11.07;8.30;;;19.70;99.90;;;;;;5054994;28;20230;-78
2021/06/03 04:19:06;;;;;;;12.43;8.60;;;19.90;99.90;;;;;;5054583;28;20311;-83
2021/06/03 04:21:33;;;;;;;10.70;8.80;;;20.00;99.90;;;;;;5054491;28;20694;-78
2021/06/03 04:23:59;;;;;;;10.77;8.50;;;20.10;99.90;;;;;;5040753;28;20200;-81
2021/06/03 04:26:26;;;;;;;15.27;9.03;;;20.20;99.90;;;;;;5054968;28;20219;-78
2021/06/03 04:28:52;;;;;;;11.80;8.77;;;20.40;99.90;;;;;;5055621;28;20200;-78
2021/06/03 04:31:19;;;;;;;11.77;8.43;;;20.50;99.90;;;;;;5054655;28;20307;-76
2021/06/03 04:33:46;;;;;;;14.33;8.50;;;20.60;99.90;;;;;;5054789;28;20223;-77
2021/06/03 04:36:13;;;;;;;13.57;9.33;;;20.60;99.90;;;;;;5054782;28;20189;-79
2021/06/03 04:38:40;;;;;;;12.13;9.40;;;20.60;99.90;;;;;;5054561;28;20290;-77
2021/06/03 04:41:06;;;;;;;13.60;9.40;;;20.50;99.90;;;;;;5053961;28;20224;-79
2021/06/03 04:43:33;;;;;;;12.80;9.33;;;20.50;99.90;;;;;;5053700;28;20224;-77
2021/06/03 04:45:59;;;;;;;12.13;9.07;;;20.50;99.90;;;;;;5053227;28;20527;-77
2021/06/03 04:48:26;;;;;;;14.20;9.73;;;20.60;99.90;;;;;;5053807;28;20200;-79
2021/06/03 04:50:54;;;;;;;15.33;9.97;;;20.50;99.90;;;;;;5052385;28;20279;-78
2021/06/03 04:53:20;;;;;;;12.63;9.83;;;20.50;99.90;;;;;;5053797;28;20294;-77
2021/06/03 04:55:47;;;;;;;17.80;10.10;;;20.50;99.90;;;;;;5048342;28;20284;-81
2021/06/03 04:58:13;;;;;;;13.35;9.82;;;20.50;99.90;;;;;;5053337;28;20219;-81
2021/06/03 05:00:41;;;;;;;14.67;10.20;;;20.50;99.90;;;;;;5053190;28;20311;-79
2021/06/03 05:03:09;;;;;;;14.40;9.87;;;20.50;99.90;;;;;;5052277;28;20211;-77
2021/06/03 05:05:37;;;;;;;15.50;10.13;;;20.60;99.90;;;;;;5053089;28;20332;-80
2021/06/03 05:08:06;;;;;;;15.20;9.77;;;20.70;99.90;;;;;;5053482;28;20612;-77
2021/06/03 05:10:33;;;;;;;16.50;9.97;;;20.60;99.90;;;;;;5051306;28;20644;-77
2021/06/03 05:13:00;;;;;;;16.83;10.07;;;20.70;99.90;;;;;;5053091;28;20723;-79
2021/06/03 05:15:26;;;;;;;10.90;9.67;;;20.70;99.90;;;;;;5052022;28;20742;-78
2021/06/03 05:17:54;;;;;;;17.13;11.03;;;20.60;99.90;;;;;;5052518;28;20265;-78
2021/06/03 05:20:22;;;;;;;11.80;10.10;;;20.60;99.90;;;;;;5052085;28;20281;-79
2021/06/03 05:22:51;;;;;;;15.73;10.40;;;20.50;99.90;;;;;;5052131;28;20690;-79
2021/06/03 05:25:22;;;;;;;20.67;12.10;;;20.50;99.90;;;;;;5052251;28;20271;-78
2021/06/03 05:27:48;;;;;;;18.83;11.00;;;20.40;99.90;;;;;;5053117;28;20552;-78
2021/06/03 05:30:19;;;;;;;14.53;10.83;;;20.40;99.90;;;;;;5053396;28;20302;-77
2021/06/03 05:32:46;;;;;;;18.20;11.07;;;20.50;99.90;;;;;;5052894;28;20257;-77
2021/06/03 05:35:15;;;;;;;17.00;10.83;;;20.50;99.90;;;;;;5052863;28;20230;-79
2021/06/03 05:37:42;;;;;;;12.63;11.20;;;20.50;99.90;;;;;;5053081;28;20291;-78
2021/06/03 05:40:12;;;;;;;18.13;11.83;;;20.60;99.90;;;;;;5052536;28;20234;-78
2021/06/03 05:42:40;;;;;;;14.53;11.60;;;20.70;99.90;;;;;;5032983;28;20232;-76
2021/06/03 05:45:08;;;;;;;14.50;11.23;;;20.70;99.90;;;;;;5035825;28;20208;-77
2021/06/03 05:47:35;;;;;;;17.27;12.03;;;20.60;99.90;;;;;;5051805;28;20184;-78
2021/06/03 05:50:02;;;;;;;16.57;11.90;;;20.60;99.90;;;;;;5052523;28;20248;-79
2021/06/03 05:52:28;;;;;;;14.00;11.60;;;20.70;99.90;;;;;;5049710;28;20203;-78
2021/06/03 05:54:55;;;;;;;17.33;11.97;;;20.90;99.90;;;;;;5051570;28;20301;-77
2021/06/03 05:57:21;;;;;;;22.07;12.40;;;20.90;99.90;;;;;;5050406;28;20282;-80
2021/06/03 05:59:49;;;;;;;17.55;12.43;;;21.00;99.90;;;;;;5049328;28;20298;-78
2021/06/03 06:02:20;;;;;;;19.80;12.60;;;21.00;99.90;;;;;;5051570;28;20278;-77
2021/06/03 06:07:32;;;;;;;20.30;12.80;;;21.10;99.90;;;;;;5051275;28;20195;-77
2021/06/03 06:09:58;;;;;;;16.13;11.87;;;21.20;99.90;;;;;;5050836;28;20203;-77
2021/06/03 06:12:25;;;;;;;18.33;12.77;;;21.10;99.90;;;;;;5051246;28;20285;-81
2021/06/03 06:14:52;;;;;;;15.37;11.43;;;21.20;99.90;;;;;;5049972;28;20192;-75
2021/06/03 06:17:19;;;;;;;15.70;12.35;;;21.40;99.90;;;;;;5048931;28;20316;-76
2021/06/03 06:19:45;;;;;;;16.80;11.75;;;21.40;99.90;;;;;;5050847;28;20636;-76
2021/06/03 06:22:12;;;;;;;16.25;12.07;;;21.80;99.90;;;;;;5051864;28;20192;-75
2021/06/03 06:24:38;;;;;;;14.70;11.52;;;22.00;99.90;;;;;;5054860;28;20283;-75
2021/06/03 06:27:06;;;;;;;16.00;12.10;;;22.30;99.90;;;;;;5056301;28;20188;-76
2021/06/03 06:29:32;;;;;;;16.70;12.00;;;22.60;99.90;;;;;;5056489;28;20200;-76
2021/06/03 06:32:00;;;;;;;16.42;11.52;;;23.00;99.90;;;;;;5056206;28;20283;-76
2021/06/03 06:34:26;;;;;;;12.95;11.43;;;23.30;99.90;;;;;;5056323;28;20287;-76
2021/06/03 06:36:53;;;;;;;15.65;11.43;;;23.60;99.90;;;;;;5055988;28;20287;-76
2021/06/03 06:39:19;;;;;;;16.17;11.65;;;23.80;99.90;;;;;;5056090;28;20322;-76
2021/06/03 06:41:46;;;;;;;13.70;11.77;;;23.90;99.90;;;;;;5056001;28;20278;-76
2021/06/03 06:44:13;;;;;;;14.20;11.55;;;24.00;99.90;;;;;;5056713;28;20223;-74
2021/06/03 06:46:39;;;;;;;15.57;11.35;;;24.20;99.90;;;;;;5055768;28;20227;-76
2021/06/03 06:49:07;;;;;;;12.85;10.95;;;24.50;99.90;;;;;;5056232;28;20196;-76
2021/06/03 06:51:33;;;;;;;15.75;11.27;;;25.30;99.90;;;;;;5055730;28;20735;-76
2021/06/03 06:54:00;;;;;;;12.68;10.20;;;26.40;99.90;;;;;;5055738;28;20654;-74
2021/06/03 06:56:26;;;;;;;13.70;9.82;;;27.00;99.90;;;;;;5055202;28;20218;-74
2021/06/03 06:58:53;;;;;;;11.63;10.43;;;27.20;99.90;;;;;;5053544;28;20194;-74
2021/06/03 07:01:19;;;;;;;16.90;10.50;;;27.00;99.90;;;;;;5047595;28;20222;-74
2021/06/03 07:03:45;;;;;;;13.15;10.50;;;27.10;99.90;;;;;;5054333;28;20287;-74
2021/06/03 07:06:13;;;;;;;13.07;10.15;;;27.40;99.90;;;;;;5055192;28;20199;-74
2021/06/03 07:08:39;;;;;;;15.68;9.60;;;28.00;99.90;;;;;;5054592;28;20347;-75
2021/06/03 07:11:06;;;;;;;11.32;8.98;;;29.10;99.90;;;;;;5055530;28;20302;-75
2021/06/03 07:13:32;;;;;;;10.52;8.90;;;29.60;99.90;;;;;;5055804;28;20196;-75
2021/06/03 07:15:58;;;;;;;13.30;9.60;;;29.60;99.90;;;;;;5055640;28;20588;-75
2021/06/03 07:18:25;;;;;;;13.93;9.70;;;29.20;99.90;;;;;;5054502;28;20227;-75
2021/06/03 07:20:51;;;;;;;14.82;10.43;;;28.50;99.90;;;;;;5054085;28;20235;-74
2021/06/03 07:23:21;;;;;;;16.02;11.57;;;27.70;99.90;;;;;;5055048;28;20197;-74
2021/06/03 07:25:48;;;;;;;16.73;11.98;;;26.80;99.90;;;;;;5054604;28;20220;-74
2021/06/03 07:28:14;;;;;;;13.50;10.98;;;26.00;99.90;;;;;;5055260;28;20215;-74
2021/06/03 07:30:41;;;;;;;15.60;11.48;;;25.50;99.90;;;;;;5054671;28;20242;-74
2021/06/03 07:33:07;;;;;;;14.13;11.57;;;25.30;99.90;;;;;;5054909;28;20279;-74
2021/06/03 07:35:36;;;;;;;14.30;11.93;;;25.00;99.90;;;;;;5055362;28;20222;-74
2021/06/03 07:38:03;;;;;;;15.70;12.13;;;25.00;99.90;;;;;;5052793;28;20200;-75
2021/06/03 07:40:33;;;;;;;13.52;11.52;;;25.20;99.90;;;;;;5050080;28;20347;-74
2021/06/03 07:43:00;;;;;;;12.90;10.75;;;25.40;99.90;;;;;;5036111;28;20592;-75
2021/06/03 07:45:28;;;;;;;12.10;10.65;;;25.70;99.90;;;;;;5051720;28;20192;-76
2021/06/03 07:47:56;;;;;;;11.80;10.38;;;26.50;99.90;;;;;;5054424;28;20197;-74
2021/06/03 07:50:25;;;;;;;10.13;9.07;;;27.60;99.90;;;;;;5052006;28;20669;-74
2021/06/03 07:52:51;;;;;;;10.40;8.60;;;28.40;99.90;;;;;;5053656;28;20190;-74
2021/06/03 07:55:19;;;;;;;16.65;8.77;;;29.10;99.90;;;;;;5053793;28;20212;-74
2021/06/03 07:57:50;;;;;;;9.48;8.55;;;30.60;99.90;;;;;;5053834;28;20235;-75
2021/06/03 08:00:18;;;;;;;12.63;8.85;;;31.70;99.90;;;;;;5054190;28;20204;-75
2021/06/03 08:02:46;;;;;;;15.18;9.20;;;31.80;99.90;;;;;;5054536;28;20684;-76
2021/06/03 08:05:14;;;;;;;13.10;8.93;;;31.10;99.90;;;;;;5054576;28;20716;-75
2021/06/03 08:07:41;;;;;;;11.13;8.80;;;30.90;99.90;;;;;;5053576;28;20192;-75
2021/06/03 08:10:11;;;;;;;11.48;9.85;;;30.80;99.90;;;;;;5053465;28;20646;-75
2021/06/03 08:12:38;;;;;;;11.30;9.18;;;30.60;99.90;;;;;;5054085;28;20196;-76
2021/06/03 08:15:08;;;;;;;11.88;9.27;;;30.50;99.90;;;;;;5053958;28;20204;-76
2021/06/03 08:17:35;;;;;;;12.88;9.65;;;30.40;99.90;;;;;;5052667;28;20196;-76
2021/06/03 08:20:01;;;;;;;11.35;9.90;;;30.00;99.90;;;;;;5054176;28;20298;-75
2021/06/03 08:22:28;;;;;;;12.30;10.10;;;29.60;99.90;;;;;;5053806;28;20224;-75
2021/06/03 08:24:54;;;;;;;15.10;10.77;;;29.40;99.90;;;;;;5053789;28;20975;-75
2021/06/03 08:27:21;;;;;;;15.70;10.20;;;29.10;99.90;;;;;;5054545;28;20626;-76
2021/06/03 08:29:47;;;;;;;12.30;10.23;;;29.30;99.90;;;;;;5054147;28;20211;-75
2021/06/03 08:32:15;;;;;;;14.68;10.50;;;29.40;99.90;;;;;;5053792;28;20287;-75
2021/06/03 08:34:42;;;;;;;14.00;11.48;;;29.30;99.90;;;;;;5052928;28;20188;-75
2021/06/03 08:37:08;;;;;;;13.30;11.20;;;29.10;99.90;;;;;;5053797;28;20199;-75
2021/06/03 08:39:35;;;;;;;12.38;11.07;;;28.90;99.90;;;;;;5053869;28;20310;-75
2021/06/03 08:42:01;;;;;;;16.00;11.38;;;28.70;99.90;;;;;;5053715;28;20279;-76
2021/06/03 08:44:28;;;;;;;18.08;12.55;;;28.40;99.90;;;;;;5053365;28;20249;-76
2021/06/03 08:46:55;;;;;;;18.33;13.15;;;27.90;99.90;;;;;;5047575;28;20191;-76
2021/06/03 08:49:23;;;;;;;14.70;13.15;;;27.70;99.90;;;;;;5052208;28;20192;-76
2021/06/03 08:51:52;;;;;;;18.90;14.55;;;28.00;99.90;;;;;;5051855;28;20298;-75
2021/06/03 08:54:18;;;;;;;16.50;13.82;;;28.20;99.90;;;;;;5050523;28;20220;-75
2021/06/03 08:56:45;;;;;;;15.30;13.35;;;28.60;99.90;;;;;;5052414;28;20284;-75
2021/06/03 08:59:11;;;;;;;15.52;13.88;;;28.90;99.90;;;;;;5052317;28;20697;-75
2021/06/03 09:01:39;;;;;;;16.75;14.75;;;28.70;99.90;;;;;;5052839;28;20220;-75
2021/06/03 09:04:19;;;;;;;17.25;15.07;;;28.90;99.90;;;;;;5053970;28;20188;-77
2021/06/03 09:06:50;;;;;;;17.23;15.10;;;29.10;99.90;;;;;;5051117;28;20196;-75
2021/06/03 09:09:25;;;;;;;18.20;15.45;;;29.30;99.90;;;;;;5048668;28;21066;-74
2021/06/03 09:12:10;;;;;;;17.77;15.13;;;29.10;99.90;;;;;;5047293;28;20237;-76
2021/06/03 09:14:36;;;;;;;17.75;15.27;;;28.90;99.90;;;;;;5051597;28;20259;-75
2021/06/03 09:17:03;;;;;;;17.88;14.68;;;29.30;99.90;;;;;;5052886;28;20275;-75
2021/06/03 09:19:29;;;;;;;18.63;16.38;;;30.10;99.90;;;;;;5053238;28;20207;-74
2021/06/03 09:21:58;;;;;;;23.50;15.15;;;30.00;99.90;;;;;;5052479;28;20344;-74
2021/06/03 09:24:31;;;;;;;17.50;14.65;;;30.10;99.90;;;;;;5045962;28;20523;-74
2021/06/03 09:26:59;;;;;;;16.00;14.27;;;31.00;99.90;;;;;;5033317;28;20340;-75
2021/06/03 09:29:27;;;;;;;17.08;14.30;;;31.60;99.90;;;;;;5050934;28;20208;-75
2021/06/03 09:32:03;;;;;;;16.77;14.25;;;31.70;99.90;;;;;;5050829;28;20279;-75
2021/06/03 09:34:30;;;;;;;15.65;14.00;;;31.40;99.90;;;;;;5051132;28;20275;-75
2021/06/03 09:36:59;;;;;;;17.05;14.70;;;30.80;99.90;;;;;;5052695;28;20260;-74
2021/06/03 09:39:27;;;;;;;16.52;14.27;;;30.70;99.90;;;;;;5046836;28;20228;-74
2021/06/03 09:41:57;;;;;;;17.90;13.27;;;30.60;99.90;;;;;;5047959;28;20645;-74
2021/06/03 09:44:26;;;;;;;16.95;13.80;;;30.10;99.90;;;;;;5050401;28;20658;-74
2021/06/03 09:46:54;;;;;;;15.68;13.95;;;29.80;99.90;;;;;;5052126;28;20279;-74
2021/06/03 09:49:26;;;;;;;17.42;13.25;;;29.30;99.90;;;;;;5047751;28;20283;-74
2021/06/03 09:51:58;;;;;;;15.95;13.02;;;29.10;99.90;;;;;;5051240;28;20278;-74
2021/06/03 09:54:25;;;;;;;20.08;12.82;;;29.10;99.90;;;;;;5052597;28;20189;-74
2021/06/03 09:56:55;;;;;;;18.35;13.52;;;29.30;99.90;;;;;;5051528;28;20196;-75
2021/06/03 09:59:24;;;;;;;17.83;13.45;;;29.60;99.90;;;;;;5052017;28;20247;-74
2021/06/03 10:01:56;;;;;;;18.48;14.50;;;29.60;99.90;;;;;;5052155;28;20596;-74
2021/06/03 10:04:26;;;;;;;16.15;13.55;;;29.30;99.90;;;;;;5052390;28;20238;-74
2021/06/03 10:06:55;;;;;;;13.85;12.35;;;29.30;99.90;;;;;;5051288;28;20690;-74
2021/06/03 10:09:43;;;;;;;18.15;11.98;;;29.20;99.90;;;;;;5051803;28;20199;-74
2021/06/03 10:12:15;;;;;;;13.23;11.15;;;29.30;99.90;;;;;;5052189;28;20292;-75
2021/06/03 10:14:43;;;;;;;15.23;11.23;;;29.80;99.90;;;;;;5052050;28;20188;-74
2021/06/03 10:17:14;;;;;;;14.93;10.95;;;30.10;99.90;;;;;;5051035;28;20327;-75
2021/06/03 10:19:41;;;;;;;15.10;11.50;;;30.60;99.90;;;;;;5052133;28;20302;-74
2021/06/03 10:22:16;;;;;;;15.65;12.05;;;30.80;99.90;;;;;;5053402;28;20286;-74
2021/06/03 10:24:58;;;;;;;11.93;10.05;;;30.90;99.90;;;;;;5053089;28;20220;-74
2021/06/03 10:27:27;;;;;;;12.52;10.48;;;31.40;99.90;;;;;;5053907;28;20509;-75
2021/06/03 10:29:54;;;;;;;12.25;10.63;;;31.70;99.90;;;;;;5052647;28;20329;-74
2021/06/03 10:32:23;;;;;;;14.43;10.45;;;31.90;99.90;;;;;;5054499;28;20231;-74
2021/06/03 10:34:51;;;;;;;12.63;10.55;;;31.70;99.90;;;;;;5053813;28;20582;-74
2021/06/03 10:37:19;;;;;;;15.45;11.10;;;31.30;99.90;;;;;;5053372;28;20192;-75
2021/06/03 10:39:47;;;;;;;16.13;10.75;;;30.80;99.90;;;;;;5056879;28;20256;-75
2021/06/03 10:42:17;;;;;;;19.92;11.00;;;30.40;99.90;;;;;;5067218;28;20204;-75
2021/06/03 10:44:44;;;;;;;12.88;9.60;;;30.60;99.90;;;;;;5071475;28;20191;-75
2021/06/03 10:47:12;;;;;;;11.35;9.00;;;31.00;99.90;;;;;;5074843;28;20196;-74
2021/06/03 10:49:39;;;;;;;12.57;9.20;;;31.10;99.90;;;;;;5075737;28;20250;-75
2021/06/03 10:52:08;;;;;;;13.45;9.15;;;31.30;99.90;;;;;;5074485;28;20196;-75
2021/06/03 10:54:50;;;;;;;11.85;9.20;;;31.00;99.90;;;;;;5070015;28;20252;-74
2021/06/03 10:57:19;;;;;;;15.00;9.68;;;31.10;99.90;;;;;;5055802;28;20191;-74
2021/06/03 10:59:47;;;;;;;11.32;9.38;;;30.70;99.90;;;;;;5055431;28;20200;-74
2021/06/03 11:02:14;;;;;;;14.43;10.18;;;30.50;99.90;;;;;;5054477;28;20678;-74
2021/06/03 11:04:42;;;;;;;13.27;9.52;;;30.50;99.90;;;;;;5053883;28;20630;-75
2021/06/03 11:07:10;;;;;;;16.20;8.57;;;31.00;99.90;;;;;;5053615;28;20216;-74
2021/06/03 11:09:39;;;;;;;11.45;8.73;;;31.00;99.90;;;;;;5056444;28;20286;-75
2021/06/03 11:12:24;;;;;;;10.00;8.20;;;31.00;99.90;;;;;;5054937;28;20279;-74
2021/06/03 11:15:09;;;;;;;11.60;8.00;;;32.10;99.90;;;;;;5043926;28;20283;-76
2021/06/03 11:17:56;;;;;;;11.75;7.55;;;33.10;99.90;;;;;;5048548;28;20223;-75
2021/06/03 11:20:41;;;;;;;9.63;7.70;;;33.50;99.90;;;;;;5056857;28;20244;-75
2021/06/03 11:23:57;;;;;;;9.25;7.90;;;34.20;99.90;;;;;;5053252;28;20200;-76
2021/06/03 11:26:49;;;;;;;9.90;8.63;;;34.50;99.90;;;;;;5055955;28;20287;-75
2021/06/03 11:29:19;;;;;;;13.10;8.98;;;34.30;99.90;;;;;;5056097;28;20223;-75
2021/06/03 11:31:48;;;;;;;11.20;9.40;;;33.80;99.90;;;;;;5056471;28;20271;-76
2021/06/03 11:34:19;;;;;;;14.50;9.65;;;32.80;99.90;;;;;;5056288;28;20213;-75
2021/06/03 11:36:57;;;;;;;15.00;10.27;;;32.40;99.90;;;;;;5055853;28;20641;-76
2021/06/03 11:39:39;;;;;;;12.82;10.35;;;31.80;99.90;;;;;;5056289;28;20278;-76
2021/06/03 11:42:24;;;;;;;13.98;11.30;;;31.30;99.90;;;;;;5055249;28;20207;-76
2021/06/03 11:45:23;;;;;;;15.20;11.63;;;30.70;99.90;;;;;;5056274;28;20267;-76
2021/06/03 11:48:13;;;;;;;15.10;11.05;;;30.40;99.90;;;;;;5028217;28;20197;-73
2021/06/03 11:50:42;;;;;;;14.85;11.23;;;30.20;99.90;;;;;;5049728;28;20638;-74
2021/06/03 11:53:15;;;;;;;16.70;10.80;;;30.30;99.90;;;;;;5055368;28;20224;-76
2021/06/03 11:55:44;;;;;;;13.57;10.13;;;30.70;99.90;;;;;;5054974;28;20488;-76
2021/06/03 11:58:19;;;;;;;16.10;9.95;;;31.10;99.90;;;;;;5052929;28;20594;-75
2021/06/03 12:00:49;;;;;;;16.20;9.95;;;31.50;99.90;;;;;;5055633;28;20670;-75
2021/06/03 12:03:27;;;;;;;13.13;9.38;;;31.50;99.90;;;;;;5055054;28;20212;-75
2021/06/03 12:05:55;;;;;;;13.60;9.90;;;31.50;99.90;;;;;;5054540;28;20212;-75
2021/06/03 12:08:42;;;;;;;12.13;10.10;;;31.80;99.90;;;;;;5054758;28;20200;-75
2021/06/03 12:11:11;;;;;;;12.68;9.77;;;31.90;99.90;;;;;;5034894;28;20227;-76
2021/06/03 12:13:38;;;;;;;18.88;10.18;;;32.10;99.90;;;;;;5039468;28;20192;-76
2021/06/03 12:16:06;;;;;;;14.73;9.48;;;32.70;99.90;;;;;;5054887;28;20269;-75
2021/06/03 12:18:38;;;;;;;12.05;9.38;;;33.20;99.90;;;;;;5055032;28;20219;-75
2021/06/03 12:21:06;;;;;;;13.68;8.85;;;33.40;99.90;;;;;;5053371;28;20730;-76
2021/06/03 12:23:33;;;;;;;10.23;8.20;;;33.70;99.90;;;;;;5053491;28;20288;-75
2021/06/03 12:25:59;;;;;;;10.02;8.18;;;34.20;99.90;;;;;;5053835;28;20216;-76
2021/06/03 12:28:34;;;;;;;11.55;8.63;;;34.40;99.90;;;;;;5054143;28;20192;-76
2021/06/03 12:31:02;;;;;;;17.52;9.23;;;34.70;99.90;;;;;;5054101;28;20202;-75
2021/06/03 12:33:30;;;;;;;11.45;8.43;;;34.20;99.90;;;;;;5034519;28;20309;-75
2021/06/03 12:36:02;;;;;;;12.45;9.00;;;34.60;99.90;;;;;;5034821;28;20292;-75
2021/06/03 12:38:32;;;;;;;13.05;9.02;;;34.80;99.90;;;;;;5039945;28;20261;-75
2021/06/03 12:41:00;;;;;;;11.30;8.82;;;34.90;99.90;;;;;;5054051;28;20219;-75
2021/06/03 12:43:35;;;;;;;14.18;8.07;;;34.70;99.90;;;;;;5053853;28;20287;-75
2021/06/03 12:46:01;;;;;;;9.77;8.30;;;34.40;99.90;;;;;;5054038;28;20196;-75